KSCF/SCF METAR and TAF weather

Enter ICAO airport designator
Station Type Date Time Source
KSCF METAR 2021/05/11 16:30 UTC NOAA

KSCF 111630Z AUTO 09009KT 10SM FEW013 26/25 A3003 RMK A01


Station Type Date Time Source
KSCF Decoded METAR 2021/05/11 16:30 UTC NOAA

South Marsh 268, LA, United States (KSCF) 29-06-57N 091-52-16W
May 11, 2021 - 12:30 PM EDT / 2021.05.11 1630 UTC
Wind: from the E (090 degrees) at 10 MPH (9 KT):0
Visibility: 10 mile(s):0
Sky conditions: mostly clear
Temperature: 78 F (26 C)
Dew Point: 77 F (25 C)
Relative Humidity: 94%
Pressure (altimeter): 30.03 in. Hg (1016 hPa)
ob: KSCF 111630Z AUTO 09009KT 10SM FEW013 26/25 A3003 RMK A01
cycle: 16

Station Type Date Time Source
KSCF TAF UTC NOAA

Error!

Example: see airport list